sensor_id;sensor_type;location;lat;lon;timestamp;P1;durP1;ratioP1;P2;durP2;ratioP2
55827;SDS011;41758;51.992;5.890;2023-08-06T00:00:09;8.35;;;7.20;;
55827;SDS011;41758;51.992;5.890;2023-08-06T00:02:35;8.80;;;7.55;;
55827;SDS011;41758;51.992;5.890;2023-08-06T00:05:01;10.35;;;8.38;;
55827;SDS011;41758;51.992;5.890;2023-08-06T00:07:26;8.40;;;7.28;;
55827;SDS011;41758;51.992;5.890;2023-08-06T00:09:52;9.10;;;7.65;;
55827;SDS011;41758;51.992;5.890;2023-08-06T00:12:18;9.05;;;7.72;;
55827;SDS011;41758;51.992;5.890;2023-08-06T00:14:43;9.77;;;8.40;;
55827;SDS011;41758;51.992;5.890;2023-08-06T00:17:10;8.73;;;7.80;;
55827;SDS011;41758;51.992;5.890;2023-08-06T00:19:35;8.68;;;7.78;;
55827;SDS011;41758;51.992;5.890;2023-08-06T00:22:01;9.07;;;7.50;;
55827;SDS011;41758;51.992;5.890;2023-08-06T00:24:27;8.98;;;8.07;;
55827;SDS011;41758;51.992;5.890;2023-08-06T00:26:53;9.00;;;7.88;;
55827;SDS011;41758;51.992;5.890;2023-08-06T00:29:19;10.00;;;7.88;;
55827;SDS011;41758;51.992;5.890;2023-08-06T00:31:44;8.88;;;7.97;;
55827;SDS011;41758;51.992;5.890;2023-08-06T00:34:10;8.40;;;7.50;;
55827;SDS011;41758;51.992;5.890;2023-08-06T00:36:36;8.85;;;7.55;;
55827;SDS011;41758;51.992;5.890;2023-08-06T00:39:01;7.82;;;7.00;;
55827;SDS011;41758;51.992;5.890;2023-08-06T00:41:27;8.40;;;7.50;;
55827;SDS011;41758;51.992;5.890;2023-08-06T00:43:53;9.52;;;7.28;;
55827;SDS011;41758;51.992;5.890;2023-08-06T00:46:19;8.25;;;7.35;;
55827;SDS011;41758;51.992;5.890;2023-08-06T00:48:46;9.20;;;7.80;;
55827;SDS011;41758;51.992;5.890;2023-08-06T00:51:12;8.18;;;7.28;;
55827;SDS011;41758;51.992;5.890;2023-08-06T00:53:38;9.80;;;7.82;;
55827;SDS011;41758;51.992;5.890;2023-08-06T00:56:05;8.85;;;7.95;;
55827;SDS011;41758;51.992;5.890;2023-08-06T00:58:32;8.73;;;7.82;;
55827;SDS011;41758;51.992;5.890;2023-08-06T01:00:59;10.27;;;8.23;;
55827;SDS011;41758;51.992;5.890;2023-08-06T01:03:24;9.40;;;8.35;;
55827;SDS011;41758;51.992;5.890;2023-08-06T01:05:50;10.77;;;9.70;;
55827;SDS011;41758;51.992;5.890;2023-08-06T01:16:01;9.65;;;8.68;;
55827;SDS011;41758;51.992;5.890;2023-08-06T01:18:28;10.93;;;8.57;;
55827;SDS011;41758;51.992;5.890;2023-08-06T01:20:54;9.18;;;8.27;;
55827;SDS011;41758;51.992;5.890;2023-08-06T01:23:20;9.50;;;8.40;;
55827;SDS011;41758;51.992;5.890;2023-08-06T01:28:19;8.73;;;7.82;;
55827;SDS011;41758;51.992;5.890;2023-08-06T01:31:10;8.77;;;7.88;;
55827;SDS011;41758;51.992;5.890;2023-08-06T01:33:44;8.25;;;7.28;;
55827;SDS011;41758;51.992;5.890;2023-08-06T01:36:12;7.93;;;6.97;;
55827;SDS011;41758;51.992;5.890;2023-08-06T01:38:40;7.38;;;6.57;;
55827;SDS011;41758;51.992;5.890;2023-08-06T01:41:06;6.35;;;5.65;;
55827;SDS011;41758;51.992;5.890;2023-08-06T01:43:32;7.50;;;6.70;;
55827;SDS011;41758;51.992;5.890;2023-08-06T01:45:58;7.18;;;6.40;;
55827;SDS011;41758;51.992;5.890;2023-08-06T01:48:23;8.05;;;6.78;;
55827;SDS011;41758;51.992;5.890;2023-08-06T01:50:49;8.10;;;6.95;;
55827;SDS011;41758;51.992;5.890;2023-08-06T01:53:15;8.50;;;6.82;;
55827;SDS011;41758;51.992;5.890;2023-08-06T01:55:40;8.43;;;7.57;;
55827;SDS011;41758;51.992;5.890;2023-08-06T01:58:06;9.85;;;8.57;;
55827;SDS011;41758;51.992;5.890;2023-08-06T02:00:32;11.38;;;8.50;;
55827;SDS011;41758;51.992;5.890;2023-08-06T02:02:57;10.60;;;8.95;;
55827;SDS011;41758;51.992;5.890;2023-08-06T02:05:23;10.40;;;9.30;;
55827;SDS011;41758;51.992;5.890;2023-08-06T02:07:49;10.30;;;9.20;;
55827;SDS011;41758;51.992;5.890;2023-08-06T02:10:14;11.18;;;9.68;;
55827;SDS011;41758;51.992;5.890;2023-08-06T02:12:40;10.73;;;9.63;;
55827;SDS011;41758;51.992;5.890;2023-08-06T02:15:06;11.05;;;9.95;;
55827;SDS011;41758;51.992;5.890;2023-08-06T02:17:32;11.30;;;10.27;;
55827;SDS011;41758;51.992;5.890;2023-08-06T02:19:57;11.57;;;10.48;;
55827;SDS011;41758;51.992;5.890;2023-08-06T02:22:23;13.05;;;10.68;;
55827;SDS011;41758;51.992;5.890;2023-08-06T02:24:49;12.55;;;11.27;;
55827;SDS011;41758;51.992;5.890;2023-08-06T02:27:15;12.88;;;11.65;;
55827;SDS011;41758;51.992;5.890;2023-08-06T02:29:40;11.73;;;10.63;;
55827;SDS011;41758;51.992;5.890;2023-08-06T02:32:06;12.93;;;11.63;;
55827;SDS011;41758;51.992;5.890;2023-08-06T02:34:32;12.32;;;11.13;;
55827;SDS011;41758;51.992;5.890;2023-08-06T02:36:58;11.98;;;10.88;;
55827;SDS011;41758;51.992;5.890;2023-08-06T02:39:24;11.85;;;10.63;;
55827;SDS011;41758;51.992;5.890;2023-08-06T02:41:50;11.55;;;10.38;;
55827;SDS011;41758;51.992;5.890;2023-08-06T02:44:16;11.25;;;10.10;;
55827;SDS011;41758;51.992;5.890;2023-08-06T02:46:44;11.10;;;9.65;;
55827;SDS011;41758;51.992;5.890;2023-08-06T02:49:10;10.63;;;8.98;;
55827;SDS011;41758;51.992;5.890;2023-08-06T02:51:36;10.23;;;9.23;;
55827;SDS011;41758;51.992;5.890;2023-08-06T02:54:01;10.48;;;9.38;;
55827;SDS011;41758;51.992;5.890;2023-08-06T02:56:27;9.93;;;8.88;;
55827;SDS011;41758;51.992;5.890;2023-08-06T02:59:13;9.77;;;8.60;;
55827;SDS011;41758;51.992;5.890;2023-08-06T03:01:56;8.32;;;7.45;;
55827;SDS011;41758;51.992;5.890;2023-08-06T03:04:30;8.82;;;7.93;;
55827;SDS011;41758;51.992;5.890;2023-08-06T03:06:55;8.30;;;7.50;;
55827;SDS011;41758;51.992;5.890;2023-08-06T03:09:27;9.25;;;8.25;;
55827;SDS011;41758;51.992;5.890;2023-08-06T03:11:53;9.15;;;7.43;;
55827;SDS011;41758;51.992;5.890;2023-08-06T03:14:18;7.75;;;6.88;;
55827;SDS011;41758;51.992;5.890;2023-08-06T03:16:45;7.43;;;6.57;;
55827;SDS011;41758;51.992;5.890;2023-08-06T03:19:14;7.30;;;6.43;;
55827;SDS011;41758;51.992;5.890;2023-08-06T03:21:39;7.80;;;6.32;;
55827;SDS011;41758;51.992;5.890;2023-08-06T03:24:06;6.75;;;5.80;;
55827;SDS011;41758;51.992;5.890;2023-08-06T03:26:33;6.68;;;5.80;;
55827;SDS011;41758;51.992;5.890;2023-08-06T03:29:01;8.13;;;6.15;;
55827;SDS011;41758;51.992;5.890;2023-08-06T03:31:29;6.88;;;6.07;;
55827;SDS011;41758;51.992;5.890;2023-08-06T03:33:56;7.30;;;6.40;;
55827;SDS011;41758;51.992;5.890;2023-08-06T03:36:24;7.43;;;6.07;;
55827;SDS011;41758;51.992;5.890;2023-08-06T03:38:51;7.95;;;5.82;;
55827;SDS011;41758;51.992;5.890;2023-08-06T03:41:17;6.78;;;5.85;;
55827;SDS011;41758;51.992;5.890;2023-08-06T03:43:43;8.40;;;6.38;;
55827;SDS011;41758;51.992;5.890;2023-08-06T03:46:15;6.40;;;5.68;;
55827;SDS011;41758;51.992;5.890;2023-08-06T03:48:41;7.40;;;5.90;;
55827;SDS011;41758;51.992;5.890;2023-08-06T03:51:07;6.93;;;5.82;;
55827;SDS011;41758;51.992;5.890;2023-08-06T03:53:32;8.48;;;6.25;;
55827;SDS011;41758;51.992;5.890;2023-08-06T03:55:59;7.75;;;6.00;;
55827;SDS011;41758;51.992;5.890;2023-08-06T03:58:25;7.30;;;5.90;;
55827;SDS011;41758;51.992;5.890;2023-08-06T04:01:10;7.93;;;6.38;;
55827;SDS011;41758;51.992;5.890;2023-08-06T04:03:42;9.15;;;5.88;;
55827;SDS011;41758;51.992;5.890;2023-08-06T04:06:08;7.40;;;5.57;;
55827;SDS011;41758;51.992;5.890;2023-08-06T04:08:35;8.02;;;5.80;;
55827;SDS011;41758;51.992;5.890;2023-08-06T04:11:01;7.53;;;5.80;;
55827;SDS011;41758;51.992;5.890;2023-08-06T04:13:27;8.00;;;5.88;;
55827;SDS011;41758;51.992;5.890;2023-08-06T04:15:53;8.00;;;6.05;;
55827;SDS011;41758;51.992;5.890;2023-08-06T04:18:20;8.40;;;6.38;;
55827;SDS011;41758;51.992;5.890;2023-08-06T04:20:47;7.93;;;6.68;;
55827;SDS011;41758;51.992;5.890;2023-08-06T04:23:14;10.15;;;7.57;;
55827;SDS011;41758;51.992;5.890;2023-08-06T04:25:41;7.95;;;6.95;;
55827;SDS011;41758;51.992;5.890;2023-08-06T04:28:07;9.05;;;7.15;;
55827;SDS011;41758;51.992;5.890;2023-08-06T04:30:33;8.07;;;6.75;;
55827;SDS011;41758;51.992;5.890;2023-08-06T04:33:00;9.15;;;7.03;;
55827;SDS011;41758;51.992;5.890;2023-08-06T04:35:26;8.73;;;7.50;;
55827;SDS011;41758;51.992;5.890;2023-08-06T04:37:52;9.80;;;7.75;;
55827;SDS011;41758;51.992;5.890;2023-08-06T04:40:18;9.07;;;7.72;;
55827;SDS011;41758;51.992;5.890;2023-08-06T04:42:44;10.18;;;7.70;;
55827;SDS011;41758;51.992;5.890;2023-08-06T04:45:09;8.95;;;8.05;;
55827;SDS011;41758;51.992;5.890;2023-08-06T04:47:36;9.98;;;8.00;;
55827;SDS011;41758;51.992;5.890;2023-08-06T04:50:01;9.68;;;7.70;;
55827;SDS011;41758;51.992;5.890;2023-08-06T04:52:27;9.40;;;8.40;;
55827;SDS011;41758;51.992;5.890;2023-08-06T04:54:53;10.15;;;8.20;;
55827;SDS011;41758;51.992;5.890;2023-08-06T04:57:20;9.48;;;8.10;;
55827;SDS011;41758;51.992;5.890;2023-08-06T04:59:46;9.30;;;8.15;;
55827;SDS011;41758;51.992;5.890;2023-08-06T05:02:12;9.55;;;7.97;;
55827;SDS011;41758;51.992;5.890;2023-08-06T05:04:37;9.57;;;7.93;;
55827;SDS011;41758;51.992;5.890;2023-08-06T05:07:03;10.57;;;7.95;;
55827;SDS011;41758;51.992;5.890;2023-08-06T05:09:30;10.15;;;8.00;;
55827;SDS011;41758;51.992;5.890;2023-08-06T05:11:56;9.55;;;8.50;;
55827;SDS011;41758;51.992;5.890;2023-08-06T05:14:22;10.48;;;8.95;;
55827;SDS011;41758;51.992;5.890;2023-08-06T05:16:47;9.55;;;7.82;;
55827;SDS011;41758;51.992;5.890;2023-08-06T05:19:13;10.32;;;8.02;;
55827;SDS011;41758;51.992;5.890;2023-08-06T05:21:39;10.00;;;8.52;;
55827;SDS011;41758;51.992;5.890;2023-08-06T05:24:05;9.93;;;8.65;;
55827;SDS011;41758;51.992;5.890;2023-08-06T05:26:30;11.10;;;8.82;;
55827;SDS011;41758;51.992;5.890;2023-08-06T05:28:56;9.80;;;8.80;;
55827;SDS011;41758;51.992;5.890;2023-08-06T05:31:22;9.98;;;8.65;;
55827;SDS011;41758;51.992;5.890;2023-08-06T05:33:47;10.23;;;9.05;;
55827;SDS011;41758;51.992;5.890;2023-08-06T05:36:13;11.10;;;9.88;;
55827;SDS011;41758;51.992;5.890;2023-08-06T05:38:39;11.32;;;10.18;;
55827;SDS011;41758;51.992;5.890;2023-08-06T05:41:04;11.27;;;10.07;;
55827;SDS011;41758;51.992;5.890;2023-08-06T05:43:30;11.05;;;10.05;;
55827;SDS011;41758;51.992;5.890;2023-08-06T05:45:56;11.57;;;10.43;;
55827;SDS011;41758;51.992;5.890;2023-08-06T05:48:22;11.82;;;10.55;;
55827;SDS011;41758;51.992;5.890;2023-08-06T05:50:50;13.05;;;11.65;;
55827;SDS011;41758;51.992;5.890;2023-08-06T05:53:16;12.45;;;11.10;;
55827;SDS011;41758;51.992;5.890;2023-08-06T05:55:42;13.63;;;12.10;;
55827;SDS011;41758;51.992;5.890;2023-08-06T05:58:08;14.38;;;12.25;;
55827;SDS011;41758;51.992;5.890;2023-08-06T06:00:34;14.20;;;12.70;;
55827;SDS011;41758;51.992;5.890;2023-08-06T06:03:00;16.00;;;12.93;;
55827;SDS011;41758;51.992;5.890;2023-08-06T06:05:26;13.80;;;12.40;;
55827;SDS011;41758;51.992;5.890;2023-08-06T06:07:52;16.23;;;12.45;;
55827;SDS011;41758;51.992;5.890;2023-08-06T06:10:18;15.00;;;12.27;;
55827;SDS011;41758;51.992;5.890;2023-08-06T06:12:44;15.13;;;13.43;;
55827;SDS011;41758;51.992;5.890;2023-08-06T06:15:09;14.25;;;12.75;;
55827;SDS011;41758;51.992;5.890;2023-08-06T06:17:35;15.15;;;13.50;;
55827;SDS011;41758;51.992;5.890;2023-08-06T06:20:01;15.43;;;13.77;;
55827;SDS011;41758;51.992;5.890;2023-08-06T06:22:29;15.43;;;13.27;;
55827;SDS011;41758;51.992;5.890;2023-08-06T06:24:55;14.20;;;12.70;;
55827;SDS011;41758;51.992;5.890;2023-08-06T06:27:20;15.25;;;13.55;;
55827;SDS011;41758;51.992;5.890;2023-08-06T06:29:46;15.18;;;13.57;;
55827;SDS011;41758;51.992;5.890;2023-08-06T06:32:12;16.45;;;13.35;;
55827;SDS011;41758;51.992;5.890;2023-08-06T06:34:38;15.35;;;13.52;;
55827;SDS011;41758;51.992;5.890;2023-08-06T06:37:04;15.73;;;13.75;;
55827;SDS011;41758;51.992;5.890;2023-08-06T06:39:29;17.67;;;14.32;;
55827;SDS011;41758;51.992;5.890;2023-08-06T06:41:55;16.25;;;14.13;;
55827;SDS011;41758;51.992;5.890;2023-08-06T06:44:29;15.00;;;13.18;;
55827;SDS011;41758;51.992;5.890;2023-08-06T06:46:55;16.98;;;13.52;;
55827;SDS011;41758;51.992;5.890;2023-08-06T06:49:20;14.93;;;12.70;;
55827;SDS011;41758;51.992;5.890;2023-08-06T06:51:46;14.20;;;12.00;;
55827;SDS011;41758;51.992;5.890;2023-08-06T06:54:12;14.63;;;12.20;;
55827;SDS011;41758;51.992;5.890;2023-08-06T06:56:38;15.40;;;11.75;;
55827;SDS011;41758;51.992;5.890;2023-08-06T06:59:03;14.80;;;11.68;;
55827;SDS011;41758;51.992;5.890;2023-08-06T07:01:29;13.82;;;11.93;;
55827;SDS011;41758;51.992;5.890;2023-08-06T07:03:55;14.32;;;11.55;;
55827;SDS011;41758;51.992;5.890;2023-08-06T07:06:22;15.15;;;11.90;;
55827;SDS011;41758;51.992;5.890;2023-08-06T07:08:47;14.95;;;11.52;;
55827;SDS011;41758;51.992;5.890;2023-08-06T07:11:13;14.50;;;11.55;;
55827;SDS011;41758;51.992;5.890;2023-08-06T07:13:39;12.52;;;10.75;;
55827;SDS011;41758;51.992;5.890;2023-08-06T07:16:04;14.07;;;12.32;;
55827;SDS011;41758;51.992;5.890;2023-08-06T07:18:30;14.85;;;12.57;;
55827;SDS011;41758;51.992;5.890;2023-08-06T07:20:56;14.27;;;12.88;;
55827;SDS011;41758;51.992;5.890;2023-08-06T07:23:22;14.82;;;13.32;;
55827;SDS011;41758;51.992;5.890;2023-08-06T07:25:49;14.60;;;13.10;;
55827;SDS011;41758;51.992;5.890;2023-08-06T07:28:16;14.45;;;12.95;;
55827;SDS011;41758;51.992;5.890;2023-08-06T07:30:42;13.75;;;12.30;;
55827;SDS011;41758;51.992;5.890;2023-08-06T07:33:08;13.73;;;12.20;;
55827;SDS011;41758;51.992;5.890;2023-08-06T07:35:34;13.65;;;12.25;;
55827;SDS011;41758;51.992;5.890;2023-08-06T07:38:01;14.88;;;11.95;;
55827;SDS011;41758;51.992;5.890;2023-08-06T07:40:27;11.93;;;10.68;;
55827;SDS011;41758;51.992;5.890;2023-08-06T07:42:53;14.15;;;12.65;;
55827;SDS011;41758;51.992;5.890;2023-08-06T07:45:18;14.15;;;12.70;;
55827;SDS011;41758;51.992;5.890;2023-08-06T07:47:44;13.93;;;12.48;;
55827;SDS011;41758;51.992;5.890;2023-08-06T07:50:09;15.15;;;13.43;;
55827;SDS011;41758;51.992;5.890;2023-08-06T07:52:35;15.73;;;14.02;;
55827;SDS011;41758;51.992;5.890;2023-08-06T07:55:01;15.35;;;13.75;;
55827;SDS011;41758;51.992;5.890;2023-08-06T07:57:32;14.38;;;12.85;;
55827;SDS011;41758;51.992;5.890;2023-08-06T07:59:59;14.00;;;12.48;;
55827;SDS011;41758;51.992;5.890;2023-08-06T08:02:25;13.90;;;12.32;;
55827;SDS011;41758;51.992;5.890;2023-08-06T08:04:51;100.75;;;44.75;;
55827;SDS011;41758;51.992;5.890;2023-08-06T08:07:17;48.45;;;28.30;;
55827;SDS011;41758;51.992;5.890;2023-08-06T08:09:43;29.15;;;22.13;;
55827;SDS011;41758;51.992;5.890;2023-08-06T08:12:09;25.40;;;21.48;;
55827;SDS011;41758;51.992;5.890;2023-08-06T08:14:35;27.75;;;22.30;;
55827;SDS011;41758;51.992;5.890;2023-08-06T08:17:05;21.95;;;18.58;;
55827;SDS011;41758;51.992;5.890;2023-08-06T08:19:31;18.20;;;16.08;;
55827;SDS011;41758;51.992;5.890;2023-08-06T08:22:00;16.33;;;14.55;;
55827;SDS011;41758;51.992;5.890;2023-08-06T08:24:26;16.50;;;14.80;;
55827;SDS011;41758;51.992;5.890;2023-08-06T08:26:52;15.35;;;13.75;;
55827;SDS011;41758;51.992;5.890;2023-08-06T08:29:19;14.05;;;12.65;;
55827;SDS011;41758;51.992;5.890;2023-08-06T08:31:45;13.73;;;12.32;;
55827;SDS011;41758;51.992;5.890;2023-08-06T08:34:13;13.63;;;12.23;;
55827;SDS011;41758;51.992;5.890;2023-08-06T08:36:38;12.77;;;11.52;;
55827;SDS011;41758;51.992;5.890;2023-08-06T08:39:04;12.77;;;11.48;;
55827;SDS011;41758;51.992;5.890;2023-08-06T08:41:30;12.10;;;10.90;;
55827;SDS011;41758;51.992;5.890;2023-08-06T08:43:58;12.88;;;11.52;;
55827;SDS011;41758;51.992;5.890;2023-08-06T08:46:27;13.57;;;12.18;;
55827;SDS011;41758;51.992;5.890;2023-08-06T08:48:56;14.63;;;13.13;;
55827;SDS011;41758;51.992;5.890;2023-08-06T08:51:25;14.23;;;12.73;;
55827;SDS011;41758;51.992;5.890;2023-08-06T08:53:52;13.18;;;11.88;;
55827;SDS011;41758;51.992;5.890;2023-08-06T08:56:22;12.48;;;11.27;;
55827;SDS011;41758;51.992;5.890;2023-08-06T08:58:49;13.40;;;11.98;;
55827;SDS011;41758;51.992;5.890;2023-08-06T09:01:15;11.60;;;10.40;;
55827;SDS011;41758;51.992;5.890;2023-08-06T09:03:42;11.23;;;10.02;;
55827;SDS011;41758;51.992;5.890;2023-08-06T09:06:09;10.93;;;9.82;;
55827;SDS011;41758;51.992;5.890;2023-08-06T09:08:39;10.88;;;9.77;;
55827;SDS011;41758;51.992;5.890;2023-08-06T09:11:12;10.77;;;9.50;;
55827;SDS011;41758;51.992;5.890;2023-08-06T09:13:38;11.27;;;10.18;;
55827;SDS011;41758;51.992;5.890;2023-08-06T09:16:04;10.13;;;9.13;;
55827;SDS011;41758;51.992;5.890;2023-08-06T09:18:30;9.57;;;8.57;;
55827;SDS011;41758;51.992;5.890;2023-08-06T09:20:56;11.52;;;9.52;;
55827;SDS011;41758;51.992;5.890;2023-08-06T09:23:31;9.35;;;8.45;;
55827;SDS011;41758;51.992;5.890;2023-08-06T09:25:58;9.27;;;8.02;;
55827;SDS011;41758;51.992;5.890;2023-08-06T09:28:29;8.38;;;7.57;;
55827;SDS011;41758;51.992;5.890;2023-08-06T09:31:04;10.45;;;9.35;;
55827;SDS011;41758;51.992;5.890;2023-08-06T09:33:29;10.35;;;9.05;;
55827;SDS011;41758;51.992;5.890;2023-08-06T09:35:55;9.07;;;8.18;;
55827;SDS011;41758;51.992;5.890;2023-08-06T09:38:21;11.40;;;10.13;;
55827;SDS011;41758;51.992;5.890;2023-08-06T09:40:46;11.35;;;10.13;;
55827;SDS011;41758;51.992;5.890;2023-08-06T09:43:12;12.10;;;10.90;;
55827;SDS011;41758;51.992;5.890;2023-08-06T09:45:39;10.60;;;9.50;;
55827;SDS011;41758;51.992;5.890;2023-08-06T09:48:08;11.90;;;10.70;;
55827;SDS011;41758;51.992;5.890;2023-08-06T09:50:35;11.70;;;10.60;;
55827;SDS011;41758;51.992;5.890;2023-08-06T09:53:02;11.45;;;10.35;;
55827;SDS011;41758;51.992;5.890;2023-08-06T09:55:33;12.43;;;11.13;;
55827;SDS011;41758;51.992;5.890;2023-08-06T09:57:59;13.32;;;12.02;;
55827;SDS011;41758;51.992;5.890;2023-08-06T10:00:25;15.27;;;13.98;;
55827;SDS011;41758;51.992;5.890;2023-08-06T10:02:52;15.23;;;13.63;;
55827;SDS011;41758;51.992;5.890;2023-08-06T10:05:21;16.35;;;14.75;;
55827;SDS011;41758;51.992;5.890;2023-08-06T10:07:48;17.65;;;15.95;;
55827;SDS011;41758;51.992;5.890;2023-08-06T10:10:16;16.33;;;14.82;;
55827;SDS011;41758;51.992;5.890;2023-08-06T10:12:46;17.90;;;16.17;;
55827;SDS011;41758;51.992;5.890;2023-08-06T10:15:19;19.08;;;17.33;;
55827;SDS011;41758;51.992;5.890;2023-08-06T10:17:50;21.38;;;19.38;;
55827;SDS011;41758;51.992;5.890;2023-08-06T10:20:19;19.73;;;17.63;;
55827;SDS011;41758;51.992;5.890;2023-08-06T10:22:59;19.13;;;17.23;;
55827;SDS011;41758;51.992;5.890;2023-08-06T10:25:35;18.25;;;16.45;;
55827;SDS011;41758;51.992;5.890;2023-08-06T10:28:08;18.27;;;16.38;;
55827;SDS011;41758;51.992;5.890;2023-08-06T10:33:09;13.38;;;12.02;;
55827;SDS011;41758;51.992;5.890;2023-08-06T10:43:24;4.32;;;3.00;;
55827;SDS011;41758;51.992;5.890;2023-08-06T10:45:54;4.75;;;2.60;;
55827;SDS011;41758;51.992;5.890;2023-08-06T10:50:59;3.58;;;1.98;;
55827;SDS011;41758;51.992;5.890;2023-08-06T10:53:25;3.25;;;2.00;;
55827;SDS011;41758;51.992;5.890;2023-08-06T10:55:51;3.42;;;1.90;;
55827;SDS011;41758;51.992;5.890;2023-08-06T10:58:17;3.72;;;2.00;;
55827;SDS011;41758;51.992;5.890;2023-08-06T11:00:43;3.13;;;2.00;;
55827;SDS011;41758;51.992;5.890;2023-08-06T11:03:09;3.00;;;2.00;;
55827;SDS011;41758;51.992;5.890;2023-08-06T11:05:38;3.17;;;2.15;;
55827;SDS011;41758;51.992;5.890;2023-08-06T11:08:04;3.78;;;2.42;;
55827;SDS011;41758;51.992;5.890;2023-08-06T11:10:32;4.05;;;2.60;;
55827;SDS011;41758;51.992;5.890;2023-08-06T11:13:01;3.60;;;2.50;;
55827;SDS011;41758;51.992;5.890;2023-08-06T11:15:28;3.90;;;2.60;;
55827;SDS011;41758;51.992;5.890;2023-08-06T11:17:55;4.65;;;2.67;;
55827;SDS011;41758;51.992;5.890;2023-08-06T11:20:21;3.97;;;2.60;;
55827;SDS011;41758;51.992;5.890;2023-08-06T11:22:47;3.90;;;2.65;;
55827;SDS011;41758;51.992;5.890;2023-08-06T11:25:13;4.18;;;2.67;;
55827;SDS011;41758;51.992;5.890;2023-08-06T11:27:39;4.47;;;2.80;;
55827;SDS011;41758;51.992;5.890;2023-08-06T11:30:05;4.45;;;3.03;;
55827;SDS011;41758;51.992;5.890;2023-08-06T11:32:31;4.72;;;3.53;;
55827;SDS011;41758;51.992;5.890;2023-08-06T11:34:58;5.00;;;3.90;;
55827;SDS011;41758;51.992;5.890;2023-08-06T11:37:24;5.72;;;4.20;;
55827;SDS011;41758;51.992;5.890;2023-08-06T11:39:50;5.55;;;4.10;;
55827;SDS011;41758;51.992;5.890;2023-08-06T11:42:17;5.32;;;4.05;;
55827;SDS011;41758;51.992;5.890;2023-08-06T11:44:43;5.40;;;4.10;;
55827;SDS011;41758;51.992;5.890;2023-08-06T11:47:12;6.18;;;4.30;;
55827;SDS011;41758;51.992;5.890;2023-08-06T11:49:44;5.75;;;4.22;;
55827;SDS011;41758;51.992;5.890;2023-08-06T11:54:48;5.13;;;3.97;;
55827;SDS011;41758;51.992;5.890;2023-08-06T11:57:37;5.15;;;3.90;;
55827;SDS011;41758;51.992;5.890;2023-08-06T12:00:12;5.35;;;4.18;;
55827;SDS011;41758;51.992;5.890;2023-08-06T12:02:42;6.15;;;4.00;;
55827;SDS011;41758;51.992;5.890;2023-08-06T12:05:12;5.30;;;4.05;;
55827;SDS011;41758;51.992;5.890;2023-08-06T12:07:40;6.40;;;4.20;;
55827;SDS011;41758;51.992;5.890;2023-08-06T12:10:07;5.78;;;4.10;;
55827;SDS011;41758;51.992;5.890;2023-08-06T12:12:34;5.63;;;4.45;;
55827;SDS011;41758;51.992;5.890;2023-08-06T12:15:01;6.35;;;4.63;;
55827;SDS011;41758;51.992;5.890;2023-08-06T12:17:27;7.07;;;4.80;;
55827;SDS011;41758;51.992;5.890;2023-08-06T12:19:54;6.05;;;5.05;;
55827;SDS011;41758;51.992;5.890;2023-08-06T12:22:20;7.45;;;4.90;;
55827;SDS011;41758;51.992;5.890;2023-08-06T12:24:46;7.18;;;5.32;;
55827;SDS011;41758;51.992;5.890;2023-08-06T12:27:12;7.25;;;5.30;;
55827;SDS011;41758;51.992;5.890;2023-08-06T12:29:42;6.78;;;5.10;;
55827;SDS011;41758;51.992;5.890;2023-08-06T12:32:09;6.85;;;4.93;;
55827;SDS011;41758;51.992;5.890;2023-08-06T12:34:35;7.72;;;5.28;;
55827;SDS011;41758;51.992;5.890;2023-08-06T12:37:02;5.22;;;4.22;;
55827;SDS011;41758;51.992;5.890;2023-08-06T12:39:28;6.63;;;5.30;;
55827;SDS011;41758;51.992;5.890;2023-08-06T12:41:55;8.10;;;6.10;;
55827;SDS011;41758;51.992;5.890;2023-08-06T12:44:22;7.25;;;6.05;;
55827;SDS011;41758;51.992;5.890;2023-08-06T12:46:49;8.65;;;6.22;;
55827;SDS011;41758;51.992;5.890;2023-08-06T12:49:15;7.50;;;5.80;;
55827;SDS011;41758;51.992;5.890;2023-08-06T12:51:41;8.73;;;5.78;;
55827;SDS011;41758;51.992;5.890;2023-08-06T12:54:06;7.00;;;5.03;;
55827;SDS011;41758;51.992;5.890;2023-08-06T12:56:32;8.00;;;6.18;;
55827;SDS011;41758;51.992;5.890;2023-08-06T12:58:58;7.13;;;5.72;;
55827;SDS011;41758;51.992;5.890;2023-08-06T13:01:24;8.20;;;5.32;;
55827;SDS011;41758;51.992;5.890;2023-08-06T13:03:49;7.90;;;5.57;;
55827;SDS011;41758;51.992;5.890;2023-08-06T13:06:15;7.88;;;5.93;;
55827;SDS011;41758;51.992;5.890;2023-08-06T13:08:41;7.15;;;5.65;;
55827;SDS011;41758;51.992;5.890;2023-08-06T13:11:07;7.65;;;5.30;;
55827;SDS011;41758;51.992;5.890;2023-08-06T13:13:32;6.85;;;5.20;;
55827;SDS011;41758;51.992;5.890;2023-08-06T13:15:58;7.47;;;5.30;;
55827;SDS011;41758;51.992;5.890;2023-08-06T13:18:24;7.05;;;4.65;;
55827;SDS011;41758;51.992;5.890;2023-08-06T13:20:49;6.20;;;4.57;;
55827;SDS011;41758;51.992;5.890;2023-08-06T13:23:19;6.43;;;4.70;;
55827;SDS011;41758;51.992;5.890;2023-08-06T13:25:45;7.78;;;4.95;;
55827;SDS011;41758;51.992;5.890;2023-08-06T13:28:11;6.47;;;4.57;;
55827;SDS011;41758;51.992;5.890;2023-08-06T13:30:38;6.53;;;4.60;;
55827;SDS011;41758;51.992;5.890;2023-08-06T13:33:07;6.65;;;4.70;;
55827;SDS011;41758;51.992;5.890;2023-08-06T13:35:34;6.72;;;4.72;;
55827;SDS011;41758;51.992;5.890;2023-08-06T13:37:59;6.28;;;4.50;;
55827;SDS011;41758;51.992;5.890;2023-08-06T13:40:28;6.57;;;4.43;;
55827;SDS011;41758;51.992;5.890;2023-08-06T13:42:55;7.10;;;5.35;;
55827;SDS011;41758;51.992;5.890;2023-08-06T13:45:21;6.82;;;5.10;;
55827;SDS011;41758;51.992;5.890;2023-08-06T13:47:46;6.38;;;4.75;;
55827;SDS011;41758;51.992;5.890;2023-08-06T13:50:12;6.63;;;4.80;;
55827;SDS011;41758;51.992;5.890;2023-08-06T13:52:38;7.20;;;4.78;;
55827;SDS011;41758;51.992;5.890;2023-08-06T13:55:05;6.50;;;5.18;;
55827;SDS011;41758;51.992;5.890;2023-08-06T13:57:31;7.78;;;5.35;;
55827;SDS011;41758;51.992;5.890;2023-08-06T13:59:57;6.80;;;5.10;;
55827;SDS011;41758;51.992;5.890;2023-08-06T14:02:23;7.30;;;5.30;;
55827;SDS011;41758;51.992;5.890;2023-08-06T14:04:48;7.82;;;5.15;;
55827;SDS011;41758;51.992;5.890;2023-08-06T14:07:14;6.95;;;4.80;;
55827;SDS011;41758;51.992;5.890;2023-08-06T14:09:40;7.13;;;5.07;;
55827;SDS011;41758;51.992;5.890;2023-08-06T14:12:07;5.60;;;4.43;;
55827;SDS011;41758;51.992;5.890;2023-08-06T14:14:33;5.93;;;4.50;;
55827;SDS011;41758;51.992;5.890;2023-08-06T14:16:59;8.05;;;5.45;;
55827;SDS011;41758;51.992;5.890;2023-08-06T14:19:26;7.40;;;5.10;;
55827;SDS011;41758;51.992;5.890;2023-08-06T14:21:51;5.68;;;4.68;;
55827;SDS011;41758;51.992;5.890;2023-08-06T14:24:17;7.43;;;5.75;;
55827;SDS011;41758;51.992;5.890;2023-08-06T14:26:43;8.18;;;6.18;;
55827;SDS011;41758;51.992;5.890;2023-08-06T14:29:09;7.13;;;5.57;;
55827;SDS011;41758;51.992;5.890;2023-08-06T14:31:35;8.02;;;6.10;;
55827;SDS011;41758;51.992;5.890;2023-08-06T14:34:01;8.82;;;6.53;;
55827;SDS011;41758;51.992;5.890;2023-08-06T14:36:27;8.55;;;6.50;;
55827;SDS011;41758;51.992;5.890;2023-08-06T14:38:52;7.25;;;5.85;;
55827;SDS011;41758;51.992;5.890;2023-08-06T14:41:18;6.82;;;5.07;;
55827;SDS011;41758;51.992;5.890;2023-08-06T14:43:44;7.13;;;5.60;;
55827;SDS011;41758;51.992;5.890;2023-08-06T14:46:09;7.93;;;6.40;;
55827;SDS011;41758;51.992;5.890;2023-08-06T14:48:35;8.10;;;6.03;;
55827;SDS011;41758;51.992;5.890;2023-08-06T14:51:01;8.02;;;6.57;;
55827;SDS011;41758;51.992;5.890;2023-08-06T14:53:26;8.90;;;7.00;;
55827;SDS011;41758;51.992;5.890;2023-08-06T14:55:52;9.70;;;6.47;;
55827;SDS011;41758;51.992;5.890;2023-08-06T14:58:19;8.27;;;7.10;;
55827;SDS011;41758;51.992;5.890;2023-08-06T15:00:45;7.78;;;6.60;;